sensor_id;sensor_type;location;lat;lon;timestamp;pressure;altitude;pressure_sealevel;temperature;humidity
11017;BME280;54687;50.800;6.772;2023-04-23T00:00:32;61025.84;;;-144.06;62.85
11017;BME280;54687;50.800;6.772;2023-04-23T00:03:04;61051.00;;;-144.06;62.58
11017;BME280;54687;50.800;6.772;2023-04-23T00:05:35;61019.53;;;-144.06;62.54
11017;BME280;54687;50.800;6.772;2023-04-23T00:08:03;61038.41;;;-144.06;62.42
11017;BME280;54687;50.800;6.772;2023-04-23T00:10:31;61021.63;;;-144.06;62.44
11017;BME280;54687;50.800;6.772;2023-04-23T00:12:58;61030.03;;;-144.06;62.51
11017;BME280;54687;50.800;6.772;2023-04-23T00:15:26;61000.69;;;-144.06;62.27
11017;BME280;54687;50.800;6.772;2023-04-23T00:17:52;61046.78;;;-144.06;62.11
11017;BME280;54687;50.800;6.772;2023-04-23T00:20:19;60994.38;;;-144.06;62.22
11017;BME280;54687;50.800;6.772;2023-04-23T00:22:47;61017.44;;;-144.06;62.29
11017;BME280;54687;50.800;6.772;2023-04-23T00:25:13;61004.88;;;-144.06;62.37
11017;BME280;54687;50.800;6.772;2023-04-23T00:27:41;61009.06;;;-144.06;62.22
11017;BME280;54687;50.800;6.772;2023-04-23T00:30:08;60988.09;;;-144.06;62.33
11017;BME280;54687;50.800;6.772;2023-04-23T00:32:35;60996.50;;;-144.06;62.49
11017;BME280;54687;50.800;6.772;2023-04-23T00:35:02;61034.22;;;-144.06;62.34
11017;BME280;54687;50.800;6.772;2023-04-23T00:37:28;61040.50;;;-144.06;62.64
11017;BME280;54687;50.800;6.772;2023-04-23T00:39:55;60983.91;;;-144.06;62.35
11017;BME280;54687;50.800;6.772;2023-04-23T00:42:21;61025.84;;;-144.06;62.56
11017;BME280;54687;50.800;6.772;2023-04-23T00:44:50;61000.69;;;-144.06;62.67
11017;BME280;54687;50.800;6.772;2023-04-23T00:47:17;61074.03;;;-144.06;62.59
11017;BME280;54687;50.800;6.772;2023-04-23T00:49:45;61038.41;;;-144.06;62.79
11017;BME280;54687;50.800;6.772;2023-04-23T00:52:11;61051.00;;;-144.06;62.69
11017;BME280;54687;50.800;6.772;2023-04-23T00:54:38;61000.69;;;-144.06;62.86
11017;BME280;54687;50.800;6.772;2023-04-23T00:57:04;61034.22;;;-144.06;62.92
11017;BME280;54687;50.800;6.772;2023-04-23T00:59:32;61011.16;;;-144.06;62.83
11017;BME280;54687;50.800;6.772;2023-04-23T01:02:00;61004.88;;;-144.06;62.88
11017;BME280;54687;50.800;6.772;2023-04-23T01:04:28;60994.38;;;-144.06;62.89
11017;BME280;54687;50.800;6.772;2023-04-23T01:06:56;61044.69;;;-144.06;62.98
11017;BME280;54687;50.800;6.772;2023-04-23T01:09:23;61025.84;;;-144.06;63.03
11017;BME280;54687;50.800;6.772;2023-04-23T01:11:52;61025.84;;;-144.06;62.99
11017;BME280;54687;50.800;6.772;2023-04-23T01:14:19;61038.41;;;-144.06;63.12
11017;BME280;54687;50.800;6.772;2023-04-23T01:16:45;61034.22;;;-144.06;63.06
11017;BME280;54687;50.800;6.772;2023-04-23T01:19:13;61009.06;;;-144.06;63.13
11017;BME280;54687;50.800;6.772;2023-04-23T01:21:40;61101.28;;;-144.06;63.01
11017;BME280;54687;50.800;6.772;2023-04-23T01:24:09;61038.41;;;-144.06;63.15
11017;BME280;54687;50.800;6.772;2023-04-23T01:26:37;61004.88;;;-144.06;63.29
11017;BME280;54687;50.800;6.772;2023-04-23T01:29:04;61044.69;;;-144.06;63.23
11017;BME280;54687;50.800;6.772;2023-04-23T01:31:31;61030.03;;;-144.06;63.58
11017;BME280;54687;50.800;6.772;2023-04-23T01:33:59;61042.59;;;-144.06;63.47
11017;BME280;54687;50.800;6.772;2023-04-23T01:36:26;61030.03;;;-144.06;63.59
11017;BME280;54687;50.800;6.772;2023-04-23T01:38:52;61021.63;;;-144.06;63.67
11017;BME280;54687;50.800;6.772;2023-04-23T01:41:21;60988.09;;;-144.06;63.71
11017;BME280;54687;50.800;6.772;2023-04-23T01:43:47;61051.00;;;-144.06;63.83
11017;BME280;54687;50.800;6.772;2023-04-23T01:46:14;61053.09;;;-144.06;63.82
11017;BME280;54687;50.800;6.772;2023-04-23T01:48:41;61021.63;;;-144.06;63.69
11017;BME280;54687;50.800;6.772;2023-04-23T01:51:07;61055.19;;;-144.06;63.93
11017;BME280;54687;50.800;6.772;2023-04-23T01:53:34;61038.41;;;-144.06;63.76
11017;BME280;54687;50.800;6.772;2023-04-23T01:56:01;61021.63;;;-144.06;64.04
11017;BME280;54687;50.800;6.772;2023-04-23T01:58:29;61025.84;;;-144.06;64.19
11017;BME280;54687;50.800;6.772;2023-04-23T02:00:56;61015.34;;;-144.06;64.18
11017;BME280;54687;50.800;6.772;2023-04-23T02:03:22;61030.03;;;-144.06;64.35
11017;BME280;54687;50.800;6.772;2023-04-23T02:05:51;61071.94;;;-144.06;64.35
11017;BME280;54687;50.800;6.772;2023-04-23T02:08:19;61019.53;;;-144.06;64.37
11017;BME280;54687;50.800;6.772;2023-04-23T02:10:46;61046.78;;;-144.06;64.39
11017;BME280;54687;50.800;6.772;2023-04-23T02:13:12;61088.72;;;-144.06;64.76
11017;BME280;54687;50.800;6.772;2023-04-23T02:15:41;60990.19;;;-144.06;64.90
11017;BME280;54687;50.800;6.772;2023-04-23T02:18:08;61009.06;;;-144.06;64.91
11017;BME280;54687;50.800;6.772;2023-04-23T02:20:35;61071.94;;;-144.06;64.99
11017;BME280;54687;50.800;6.772;2023-04-23T02:23:05;61055.19;;;-144.06;65.15
11017;BME280;54687;50.800;6.772;2023-04-23T02:25:31;61038.41;;;-144.06;65.33
11017;BME280;54687;50.800;6.772;2023-04-23T02:27:58;61038.41;;;-144.06;65.75
11017;BME280;54687;50.800;6.772;2023-04-23T02:30:26;61036.31;;;-144.06;65.57
11017;BME280;54687;50.800;6.772;2023-04-23T02:32:54;61067.75;;;-144.06;65.77
11017;BME280;54687;50.800;6.772;2023-04-23T02:35:21;61046.78;;;-144.06;66.15
11017;BME280;54687;50.800;6.772;2023-04-23T02:37:48;61071.94;;;-144.06;66.32
11017;BME280;54687;50.800;6.772;2023-04-23T02:40:14;61055.19;;;-144.06;66.32
11017;BME280;54687;50.800;6.772;2023-04-23T02:42:41;61036.31;;;-144.06;66.76
11017;BME280;54687;50.800;6.772;2023-04-23T02:45:08;61059.38;;;-144.06;66.66
11017;BME280;54687;50.800;6.772;2023-04-23T02:47:35;61065.66;;;-144.06;66.63
11017;BME280;54687;50.800;6.772;2023-04-23T02:50:03;61013.25;;;-144.06;66.66
11017;BME280;54687;50.800;6.772;2023-04-23T02:52:30;61044.69;;;-144.06;66.56
11017;BME280;54687;50.800;6.772;2023-04-23T02:54:57;61063.56;;;-144.06;66.45
11017;BME280;54687;50.800;6.772;2023-04-23T02:57:24;61063.56;;;-144.06;66.22
11017;BME280;54687;50.800;6.772;2023-04-23T02:59:51;61059.38;;;-144.06;66.07
11017;BME280;54687;50.800;6.772;2023-04-23T03:02:17;61055.19;;;-144.06;66.05
11017;BME280;54687;50.800;6.772;2023-04-23T03:04:44;61046.78;;;-144.06;65.85
11017;BME280;54687;50.800;6.772;2023-04-23T03:07:12;61059.38;;;-144.06;66.20
11017;BME280;54687;50.800;6.772;2023-04-23T03:09:41;61082.44;;;-144.06;66.00
11017;BME280;54687;50.800;6.772;2023-04-23T03:12:08;61032.13;;;-144.06;66.05
11017;BME280;54687;50.800;6.772;2023-04-23T03:14:34;61067.75;;;-144.06;66.12
11017;BME280;54687;50.800;6.772;2023-04-23T03:17:01;61084.53;;;-144.06;66.16
11017;BME280;54687;50.800;6.772;2023-04-23T03:19:27;61084.53;;;-144.06;66.02
11017;BME280;54687;50.800;6.772;2023-04-23T03:21:54;61055.19;;;-144.06;66.07
11017;BME280;54687;50.800;6.772;2023-04-23T03:24:22;61040.50;;;-144.06;66.08
11017;BME280;54687;50.800;6.772;2023-04-23T03:26:50;61034.22;;;-144.06;65.98
11017;BME280;54687;50.800;6.772;2023-04-23T03:29:16;61032.13;;;-144.06;65.88
11017;BME280;54687;50.800;6.772;2023-04-23T03:31:43;61017.44;;;-144.06;65.80
11017;BME280;54687;50.800;6.772;2023-04-23T03:34:09;61025.84;;;-144.06;65.73
11017;BME280;54687;50.800;6.772;2023-04-23T03:36:36;61059.38;;;-144.06;65.51
11017;BME280;54687;50.800;6.772;2023-04-23T03:39:03;60990.19;;;-144.06;65.33
11017;BME280;54687;50.800;6.772;2023-04-23T03:41:31;61074.03;;;-144.06;65.13
11017;BME280;54687;50.800;6.772;2023-04-23T03:43:57;61053.09;;;-144.06;64.92
11017;BME280;54687;50.800;6.772;2023-04-23T03:46:24;61011.16;;;-144.06;64.84
11017;BME280;54687;50.800;6.772;2023-04-23T03:48:50;61034.22;;;-144.06;64.68
11017;BME280;54687;50.800;6.772;2023-04-23T03:51:17;61063.56;;;-144.06;64.32
11017;BME280;54687;50.800;6.772;2023-04-23T03:53:44;61059.38;;;-144.06;64.38
11017;BME280;54687;50.800;6.772;2023-04-23T03:56:11;61048.88;;;-144.06;64.25
11017;BME280;54687;50.800;6.772;2023-04-23T03:58:39;61046.78;;;-144.06;64.33
11017;BME280;54687;50.800;6.772;2023-04-23T04:01:05;61076.13;;;-144.06;64.25
11017;BME280;54687;50.800;6.772;2023-04-23T04:03:32;61021.63;;;-144.06;64.25
11017;BME280;54687;50.800;6.772;2023-04-23T04:05:59;61092.91;;;-144.06;64.34
11017;BME280;54687;50.800;6.772;2023-04-23T04:08:25;61044.69;;;-144.06;64.21
11017;BME280;54687;50.800;6.772;2023-04-23T04:10:54;61038.41;;;-144.06;64.40
11017;BME280;54687;50.800;6.772;2023-04-23T04:13:20;61055.19;;;-144.06;64.26
11017;BME280;54687;50.800;6.772;2023-04-23T04:15:48;61046.78;;;-144.06;64.39
11017;BME280;54687;50.800;6.772;2023-04-23T04:18:15;61032.13;;;-144.06;64.22
11017;BME280;54687;50.800;6.772;2023-04-23T04:20:41;61017.44;;;-144.06;64.16
11017;BME280;54687;50.800;6.772;2023-04-23T04:23:10;61086.63;;;-144.06;64.33
11017;BME280;54687;50.800;6.772;2023-04-23T04:25:36;61086.63;;;-144.06;64.21
11017;BME280;54687;50.800;6.772;2023-04-23T04:28:04;61021.63;;;-144.06;64.05
11017;BME280;54687;50.800;6.772;2023-04-23T04:30:32;61017.44;;;-144.06;64.10
11017;BME280;54687;50.800;6.772;2023-04-23T04:33:00;61109.69;;;-144.06;64.20
11017;BME280;54687;50.800;6.772;2023-04-23T04:35:27;60996.50;;;-144.06;64.31
11017;BME280;54687;50.800;6.772;2023-04-23T04:37:54;61059.38;;;-144.06;64.19
11017;BME280;54687;50.800;6.772;2023-04-23T04:40:21;61038.41;;;-144.06;63.97
11017;BME280;54687;50.800;6.772;2023-04-23T04:42:47;61030.03;;;-144.06;63.91
11017;BME280;54687;50.800;6.772;2023-04-23T04:45:14;61061.47;;;-144.06;63.91
11017;BME280;54687;50.800;6.772;2023-04-23T04:47:41;61025.84;;;-144.06;64.16
11017;BME280;54687;50.800;6.772;2023-04-23T04:50:10;61036.31;;;-144.06;64.18
11017;BME280;54687;50.800;6.772;2023-04-23T04:52:36;61063.56;;;-144.06;63.84
11017;BME280;54687;50.800;6.772;2023-04-23T04:55:03;61015.34;;;-144.06;63.69
11017;BME280;54687;50.800;6.772;2023-04-23T04:57:31;61071.94;;;-144.06;63.57
11017;BME280;54687;50.800;6.772;2023-04-23T04:59:57;61036.31;;;-144.06;63.32
11017;BME280;54687;50.800;6.772;2023-04-23T05:02:24;61034.22;;;-144.06;63.40
11017;BME280;54687;50.800;6.772;2023-04-23T05:04:51;61034.22;;;-144.06;63.18
11017;BME280;54687;50.800;6.772;2023-04-23T05:07:19;61023.75;;;-144.06;63.32
11017;BME280;54687;50.800;6.772;2023-04-23T05:09:45;61034.22;;;-144.06;63.45
11017;BME280;54687;50.800;6.772;2023-04-23T05:12:12;61034.22;;;-144.06;63.36
11017;BME280;54687;50.800;6.772;2023-04-23T05:14:38;61030.03;;;-144.06;63.34
11017;BME280;54687;50.800;6.772;2023-04-23T05:17:05;61021.63;;;-144.06;63.33
11017;BME280;54687;50.800;6.772;2023-04-23T05:19:31;61015.34;;;-144.06;63.25
11017;BME280;54687;50.800;6.772;2023-04-23T05:21:58;61051.00;;;-144.06;63.30
11017;BME280;54687;50.800;6.772;2023-04-23T05:24:28;61009.06;;;-144.06;63.04
11017;BME280;54687;50.800;6.772;2023-04-23T05:26:55;61017.44;;;-144.06;62.92
11017;BME280;54687;50.800;6.772;2023-04-23T05:29:21;61013.25;;;-144.06;62.90
11017;BME280;54687;50.800;6.772;2023-04-23T05:31:48;61009.06;;;-144.06;62.74
11017;BME280;54687;50.800;6.772;2023-04-23T05:34:14;61030.03;;;-144.06;62.66
11017;BME280;54687;50.800;6.772;2023-04-23T05:36:41;61017.44;;;-144.06;62.13
11017;BME280;54687;50.800;6.772;2023-04-23T05:39:07;60988.09;;;-144.06;62.10
11017;BME280;54687;50.800;6.772;2023-04-23T05:41:35;60990.19;;;-144.06;61.79
11017;BME280;54687;50.800;6.772;2023-04-23T05:44:02;61021.63;;;-144.06;61.51
11017;BME280;54687;50.800;6.772;2023-04-23T05:46:28;61059.38;;;-144.06;61.34
11017;BME280;54687;50.800;6.772;2023-04-23T05:48:55;61025.84;;;-144.06;61.03
11017;BME280;54687;50.800;6.772;2023-04-23T05:51:21;61009.06;;;-144.06;60.89
11017;BME280;54687;50.800;6.772;2023-04-23T05:53:48;60996.50;;;-144.06;60.71
11017;BME280;54687;50.800;6.772;2023-04-23T05:56:15;61002.78;;;-144.06;60.53
11017;BME280;54687;50.800;6.772;2023-04-23T05:58:42;60992.28;;;-144.06;60.55
11017;BME280;54687;50.800;6.772;2023-04-23T06:01:09;60986.00;;;-144.06;60.43
11017;BME280;54687;50.800;6.772;2023-04-23T06:03:36;60967.13;;;-144.06;60.26
11017;BME280;54687;50.800;6.772;2023-04-23T06:06:02;61002.78;;;-144.06;60.26
11017;BME280;54687;50.800;6.772;2023-04-23T06:08:29;61011.16;;;-144.06;60.19
11017;BME280;54687;50.800;6.772;2023-04-23T06:10:55;60975.53;;;-144.06;60.06
11017;BME280;54687;50.800;6.772;2023-04-23T06:13:22;60975.53;;;-144.06;59.68
11017;BME280;54687;50.800;6.772;2023-04-23T06:15:50;60994.38;;;-144.06;59.49
11017;BME280;54687;50.800;6.772;2023-04-23T06:18:16;60962.94;;;-144.06;59.24
11017;BME280;54687;50.800;6.772;2023-04-23T06:20:43;60956.66;;;-144.06;58.64
11017;BME280;54687;50.800;6.772;2023-04-23T06:23:11;60975.53;;;-144.06;58.39
11017;BME280;54687;50.800;6.772;2023-04-23T06:25:38;60979.72;;;-144.06;58.03
11017;BME280;54687;50.800;6.772;2023-04-23T06:28:04;60941.97;;;-144.06;57.48
11017;BME280;54687;50.800;6.772;2023-04-23T06:30:31;60950.38;;;-144.06;56.99
11017;BME280;54687;50.800;6.772;2023-04-23T06:33:00;60973.44;;;-144.06;56.88
11017;BME280;54687;50.800;6.772;2023-04-23T06:35:26;60962.94;;;-144.06;56.64
11017;BME280;54687;50.800;6.772;2023-04-23T06:37:53;60950.38;;;-144.06;56.45
11017;BME280;54687;50.800;6.772;2023-04-23T06:40:20;60986.00;;;-144.06;56.46
11017;BME280;54687;50.800;6.772;2023-04-23T06:42:47;61004.88;;;-144.06;56.22
11017;BME280;54687;50.800;6.772;2023-04-23T06:45:15;60975.53;;;-144.06;56.17
11017;BME280;54687;50.800;6.772;2023-04-23T06:47:41;60950.38;;;-144.06;56.29
11017;BME280;54687;50.800;6.772;2023-04-23T06:50:09;60956.66;;;-144.06;56.16
11017;BME280;54687;50.800;6.772;2023-04-23T06:52:36;60967.13;;;-144.06;56.00
11017;BME280;54687;50.800;6.772;2023-04-23T06:55:03;60923.13;;;-144.06;55.37
11017;BME280;54687;50.800;6.772;2023-04-23T06:57:29;60929.41;;;-144.06;55.45
11017;BME280;54687;50.800;6.772;2023-04-23T06:59:56;60910.53;;;-144.06;55.30
11017;BME280;54687;50.800;6.772;2023-04-23T07:02:22;60946.19;;;-144.06;54.81
11017;BME280;54687;50.800;6.772;2023-04-23T07:04:49;60893.78;;;-144.06;53.59
11017;BME280;54687;50.800;6.772;2023-04-23T07:07:17;60912.63;;;-144.06;53.03
11017;BME280;54687;50.800;6.772;2023-04-23T07:09:44;60874.91;;;-144.06;52.46
11017;BME280;54687;50.800;6.772;2023-04-23T07:12:10;60870.72;;;-144.06;52.17
11017;BME280;54687;50.800;6.772;2023-04-23T07:14:37;60883.28;;;-144.06;52.09
11017;BME280;54687;50.800;6.772;2023-04-23T07:17:04;60864.44;;;-144.06;51.52
11017;BME280;54687;50.800;6.772;2023-04-23T07:19:30;60870.72;;;-144.06;50.36
11017;BME280;54687;50.800;6.772;2023-04-23T07:21:57;60906.34;;;-144.06;49.37
11017;BME280;54687;50.800;6.772;2023-04-23T07:24:25;60862.34;;;-144.06;49.52
11017;BME280;54687;50.800;6.772;2023-04-23T07:26:51;60891.69;;;-144.06;49.93
11017;BME280;54687;50.800;6.772;2023-04-23T07:29:18;60868.63;;;-144.06;50.44
11017;BME280;54687;50.800;6.772;2023-04-23T07:31:45;60885.38;;;-144.06;50.16
11017;BME280;54687;50.800;6.772;2023-04-23T07:34:12;60879.09;;;-144.06;50.40
11017;BME280;54687;50.800;6.772;2023-04-23T07:36:39;60849.75;;;-144.06;49.68
11017;BME280;54687;50.800;6.772;2023-04-23T07:39:06;60866.53;;;-144.06;48.80
11017;BME280;54687;50.800;6.772;2023-04-23T07:41:33;60862.34;;;-144.06;49.12
11017;BME280;54687;50.800;6.772;2023-04-23T07:44:01;60858.13;;;-144.06;49.40
11017;BME280;54687;50.800;6.772;2023-04-23T07:46:28;60866.53;;;-144.06;48.60
11017;BME280;54687;50.800;6.772;2023-04-23T07:48:55;60874.91;;;-144.06;48.61
11017;BME280;54687;50.800;6.772;2023-04-23T07:51:21;60828.78;;;-144.06;47.61
11017;BME280;54687;50.800;6.772;2023-04-23T07:53:51;60856.03;;;-144.06;48.25
11017;BME280;54687;50.800;6.772;2023-04-23T07:56:19;60824.59;;;-144.06;48.28
11017;BME280;54687;50.800;6.772;2023-04-23T07:58:47;60887.47;;;-144.06;48.67
11017;BME280;54687;50.800;6.772;2023-04-23T08:01:13;60841.38;;;-144.06;48.32
11017;BME280;54687;50.800;6.772;2023-04-23T08:03:40;60845.56;;;-144.06;47.63
11017;BME280;54687;50.800;6.772;2023-04-23T08:06:08;60870.72;;;-144.06;47.73
11017;BME280;54687;50.800;6.772;2023-04-23T08:08:35;60889.59;;;-144.06;47.25
11017;BME280;54687;50.800;6.772;2023-04-23T08:11:01;60866.53;;;-144.06;47.60
11017;BME280;54687;50.800;6.772;2023-04-23T08:13:28;60841.38;;;-144.06;46.46
11017;BME280;54687;50.800;6.772;2023-04-23T08:15:56;60881.19;;;-144.06;46.96
11017;BME280;54687;50.800;6.772;2023-04-23T08:18:22;60851.84;;;-144.06;46.26
11017;BME280;54687;50.800;6.772;2023-04-23T08:20:52;60849.75;;;-144.06;46.04
11017;BME280;54687;50.800;6.772;2023-04-23T08:23:19;60883.28;;;-144.06;46.48
11017;BME280;54687;50.800;6.772;2023-04-23T08:25:45;60851.84;;;-144.06;46.63
11017;BME280;54687;50.800;6.772;2023-04-23T08:28:12;60824.59;;;-144.06;46.04
11017;BME280;54687;50.800;6.772;2023-04-23T08:30:39;60860.25;;;-144.06;45.99
11017;BME280;54687;50.800;6.772;2023-04-23T08:33:06;60868.63;;;-144.06;45.58
11017;BME280;54687;50.800;6.772;2023-04-23T08:35:33;60845.56;;;-144.06;45.59
11017;BME280;54687;50.800;6.772;2023-04-23T08:38:00;60841.38;;;-144.06;45.64
11017;BME280;54687;50.800;6.772;2023-04-23T08:40:29;60824.59;;;-144.06;45.98
11017;BME280;54687;50.800;6.772;2023-04-23T08:43:01;60845.56;;;-144.06;45.72
11017;BME280;54687;50.800;6.772;2023-04-23T08:45:28;60895.88;;;-144.06;45.79
11017;BME280;54687;50.800;6.772;2023-04-23T08:47:58;60962.94;;;-144.06;45.42
11017;BME280;54687;50.800;6.772;2023-04-23T08:50:27;60879.09;;;-144.06;45.38
11017;BME280;54687;50.800;6.772;2023-04-23T08:52:56;60833.00;;;-144.06;44.73
11017;BME280;54687;50.800;6.772;2023-04-23T08:55:23;60822.50;;;-144.06;45.12
11017;BME280;54687;50.800;6.772;2023-04-23T08:57:50;60864.44;;;-144.06;45.00
11017;BME280;54687;50.800;6.772;2023-04-23T09:00:19;60881.19;;;-144.06;43.84
11017;BME280;54687;50.800;6.772;2023-04-23T09:02:47;60845.56;;;-144.06;43.84
11017;BME280;54687;50.800;6.772;2023-04-23T09:05:14;60828.78;;;-144.06;43.48
11017;BME280;54687;50.800;6.772;2023-04-23T09:07:42;60828.78;;;-144.06;43.68
11017;BME280;54687;50.800;6.772;2023-04-23T09:10:10;60805.75;;;-144.06;44.06
11017;BME280;54687;50.800;6.772;2023-04-23T09:12:40;60799.44;;;-144.06;43.97
11017;BME280;54687;50.800;6.772;2023-04-23T09:15:07;60820.41;;;-144.06;43.02
11017;BME280;54687;50.800;6.772;2023-04-23T09:17:38;60851.84;;;-144.06;43.55
11017;BME280;54687;50.800;6.772;2023-04-23T09:20:06;60830.88;;;-144.06;43.23
11017;BME280;54687;50.800;6.772;2023-04-23T09:22:38;60841.38;;;-144.06;43.51
11017;BME280;54687;50.800;6.772;2023-04-23T09:25:07;60843.47;;;-144.06;43.09
11017;BME280;54687;50.800;6.772;2023-04-23T09:27:34;60795.25;;;-144.06;42.06
11017;BME280;54687;50.800;6.772;2023-04-23T09:30:02;60809.94;;;-144.06;41.64
11017;BME280;54687;50.800;6.772;2023-04-23T09:32:32;60797.34;;;-144.06;41.90
11017;BME280;54687;50.800;6.772;2023-04-23T09:35:02;60837.19;;;-144.06;39.92
11017;BME280;54687;50.800;6.772;2023-04-23T09:37:29;60818.31;;;-144.06;38.96
11017;BME280;54687;50.800;6.772;2023-04-23T09:39:57;60780.59;;;-144.06;38.93
11017;BME280;54687;50.800;6.772;2023-04-23T09:42:27;60753.34;;;-144.06;38.51
11017;BME280;54687;50.800;6.772;2023-04-23T09:44:58;60761.72;;;-144.06;38.41
11017;BME280;54687;50.800;6.772;2023-04-23T09:47:25;60816.22;;;-144.06;39.10
11017;BME280;54687;50.800;6.772;2023-04-23T09:49:52;60778.50;;;-144.06;39.20
11017;BME280;54687;50.800;6.772;2023-04-23T09:52:18;60730.28;;;-144.06;39.63
11017;BME280;54687;50.800;6.772;2023-04-23T09:54:47;60726.09;;;-144.06;38.92
11017;BME280;54687;50.800;6.772;2023-04-23T09:57:13;60774.28;;;-144.06;38.17
11017;BME280;54687;50.800;6.772;2023-04-23T09:59:41;60778.50;;;-144.06;38.55
11017;BME280;54687;50.800;6.772;2023-04-23T10:02:09;60736.56;;;-144.06;38.58
11017;BME280;54687;50.800;6.772;2023-04-23T10:04:36;60715.59;;;-144.06;38.48
11017;BME280;54687;50.800;6.772;2023-04-23T10:07:04;60711.41;;;-144.06;38.24
11017;BME280;54687;50.800;6.772;2023-04-23T10:09:33;60751.25;;;-144.06;37.63
11017;BME280;54687;50.800;6.772;2023-04-23T10:12:01;60749.16;;;-144.06;38.17
11017;BME280;54687;50.800;6.772;2023-04-23T10:14:28;60757.53;;;-144.06;37.75
11017;BME280;54687;50.800;6.772;2023-04-23T10:16:58;60793.16;;;-144.06;37.53
11017;BME280;54687;50.800;6.772;2023-04-23T10:19:26;60736.56;;;-144.06;37.97
11017;BME280;54687;50.800;6.772;2023-04-23T10:21:55;60742.84;;;-144.06;37.14
11017;BME280;54687;50.800;6.772;2023-04-23T10:24:25;60728.19;;;-144.06;37.26
11017;BME280;54687;50.800;6.772;2023-04-23T10:26:55;60734.47;;;-144.06;37.54
11017;BME280;54687;50.800;6.772;2023-04-23T10:29:26;60749.16;;;-144.06;37.38
11017;BME280;54687;50.800;6.772;2023-04-23T10:31:54;60751.25;;;-144.06;36.98
11017;BME280;54687;50.800;6.772;2023-04-23T10:34:23;60734.47;;;-144.06;37.07
11017;BME280;54687;50.800;6.772;2023-04-23T10:36:51;60740.75;;;-144.06;36.19
11017;BME280;54687;50.800;6.772;2023-04-23T10:39:19;60717.72;;;-144.06;36.47
11017;BME280;54687;50.800;6.772;2023-04-23T10:41:47;60726.09;;;-144.06;36.33
11017;BME280;54687;50.800;6.772;2023-04-23T10:44:14;60728.19;;;-144.06;36.40
11017;BME280;54687;50.800;6.772;2023-04-23T10:46:50;60744.94;;;-144.06;36.40
11017;BME280;54687;50.800;6.772;2023-04-23T10:49:17;60740.75;;;-144.06;36.02
11017;BME280;54687;50.800;6.772;2023-04-23T10:51:46;60721.91;;;-144.06;35.52
11017;BME280;54687;50.800;6.772;2023-04-23T10:54:13;60713.50;;;-144.06;35.88
11017;BME280;54687;50.800;6.772;2023-04-23T10:56:41;60688.38;;;-144.06;35.83
11017;BME280;54687;50.800;6.772;2023-04-23T10:59:17;60694.66;;;-144.06;35.76
11017;BME280;54687;50.800;6.772;2023-04-23T11:01:45;60715.59;;;-144.06;36.25
11017;BME280;54687;50.800;6.772;2023-04-23T11:04:22;60709.31;;;-144.06;35.22
11017;BME280;54687;50.800;6.772;2023-04-23T11:06:55;60732.38;;;-144.06;35.59
11017;BME280;54687;50.800;6.772;2023-04-23T11:09:39;60700.94;;;-144.06;35.54
11017;BME280;54687;50.800;6.772;2023-04-23T11:12:09;60740.75;;;-144.06;35.10
11017;BME280;54687;50.800;6.772;2023-04-23T11:14:41;60788.97;;;-144.06;35.88
11017;BME280;54687;50.800;6.772;2023-04-23T11:17:10;60763.81;;;-144.06;36.28
11017;BME280;54687;50.800;6.772;2023-04-23T11:19:38;60742.84;;;-144.06;36.17
11017;BME280;54687;50.800;6.772;2023-04-23T11:22:12;60768.00;;;-144.06;36.18
11017;BME280;54687;50.800;6.772;2023-04-23T11:24:40;60738.66;;;-144.06;36.54
11017;BME280;54687;50.800;6.772;2023-04-23T11:27:08;60700.94;;;-144.06;36.16
11017;BME280;54687;50.800;6.772;2023-04-23T11:29:36;60673.69;;;-144.06;35.81
11017;BME280;54687;50.800;6.772;2023-04-23T11:32:03;60717.72;;;-144.06;35.74
11017;BME280;54687;50.800;6.772;2023-04-23T11:34:34;60677.88;;;-144.06;36.30
11017;BME280;54687;50.800;6.772;2023-04-23T11:37:01;60719.81;;;-144.06;35.66
11017;BME280;54687;50.800;6.772;2023-04-23T11:39:30;60677.88;;;-144.06;35.62
11017;BME280;54687;50.800;6.772;2023-04-23T11:41:57;60736.56;;;-144.06;34.98
11017;BME280;54687;50.800;6.772;2023-04-23T11:44:27;60732.38;;;-144.06;34.85
11017;BME280;54687;50.800;6.772;2023-04-23T11:46:54;60700.94;;;-144.06;35.01
11017;BME280;54687;50.800;6.772;2023-04-23T11:49:20;60719.81;;;-144.06;35.00
11017;BME280;54687;50.800;6.772;2023-04-23T11:51:47;60724.00;;;-144.06;34.88
11017;BME280;54687;50.800;6.772;2023-04-23T11:54:14;60728.19;;;-144.06;35.15
11017;BME280;54687;50.800;6.772;2023-04-23T11:56:43;60732.38;;;-144.06;34.83
11017;BME280;54687;50.800;6.772;2023-04-23T11:59:10;60740.75;;;-144.06;34.76
11017;BME280;54687;50.800;6.772;2023-04-23T12:01:44;60715.59;;;-144.06;34.59
11017;BME280;54687;50.800;6.772;2023-04-23T12:04:13;60700.94;;;-144.06;35.46
11017;BME280;54687;50.800;6.772;2023-04-23T12:06:40;60736.56;;;-144.06;35.27
11017;BME280;54687;50.800;6.772;2023-04-23T12:09:08;60749.16;;;-144.06;35.69
11017;BME280;54687;50.800;6.772;2023-04-23T12:11:36;60759.63;;;-144.06;35.67
11017;BME280;54687;50.800;6.772;2023-04-23T12:14:04;60724.00;;;-144.06;36.53
11017;BME280;54687;50.800;6.772;2023-04-23T12:16:34;60755.44;;;-144.06;36.41
11017;BME280;54687;50.800;6.772;2023-04-23T12:19:01;60751.25;;;-144.06;36.13
11017;BME280;54687;50.800;6.772;2023-04-23T12:21:28;60730.28;;;-144.06;36.73
11017;BME280;54687;50.800;6.772;2023-04-23T12:23:55;60744.94;;;-144.06;36.08
11017;BME280;54687;50.800;6.772;2023-04-23T12:26:24;60728.19;;;-144.06;35.86
11017;BME280;54687;50.800;6.772;2023-04-23T12:28:51;60719.81;;;-144.06;35.13
11017;BME280;54687;50.800;6.772;2023-04-23T12:31:21;60724.00;;;-144.06;35.64
11017;BME280;54687;50.800;6.772;2023-04-23T12:33:55;60703.03;;;-144.06;34.42
11017;BME280;54687;50.800;6.772;2023-04-23T12:36:26;60719.81;;;-144.06;33.97
11017;BME280;54687;50.800;6.772;2023-04-23T12:38:53;60688.38;;;-144.06;33.11
11017;BME280;54687;50.800;6.772;2023-04-23T12:41:20;60726.09;;;-144.06;33.47